Bruno Assis

Recruteur - Palmeiras
7 Déc 2028
Jeudi
Processus

Personnalité

Adaptabilité (16) Ambition (1) Controverse (1) Loyauté (1) Pression (8) Professionnalisme (9) Sportivité (19) Tempérament (16)

Profil

Style d'entraînement Démocratique
Diplôme National A
Détermination 7
Gestion des joueurs 7
Motivation 12
Discipline 6
Satisfaction professionnelle
100%
Fatigue
0%
Rôle Recruteur
Salaire 110.3K p/s
Contrat 14.03.2029

Performance

Comportement Bon
Efficacité de l'entraînement
68%
Développement des joueurs
65%
Prévention des blessures
30%
Mise en place tactique
80%

Événements récents

A participé à une réunion de recrutement maintenant
A recommandé une cible de transfert maintenant
A recommandé une cible de transfert maintenant
A présenté un dossier au conseil maintenant
A présenté un dossier au conseil 7j
A présenté un dossier au conseil 7j
A présenté un dossier au conseil 7j
A présenté un dossier au conseil 7j

Suivi en cours

177
Joueur Club Statut Capacité Confiance Observé Dernière observation Dernier vote
Igor Felisberto Sport Recife Actif 114 / 127 86% 1 04.12.2028 Approuver
Franco Herrera Bragantino Négociation 116 / 124 86% 1 02.12.2028 -
Endrick Boca Juniors Négociation 163 / 158 40% 1 02.12.2028 -
Matías Fernández-Pardo Atalanta Actif 159 / 150 40% 1 02.12.2028 -
Lucas Sasha Fortaleza Perdu 114 / 105 86% 1 01.12.2028 -
Santiago Salcedo Cruzeiro Actif 162 / 157 40% 8 30.11.2028 -
Kaiki Cruzeiro Actif 140 / 133 40% 6 30.11.2028 -
Guille Rosas Boca Juniors Actif 150 / 145 40% 8 30.11.2028 -
Rico Lewis West Bromwich Albion Actif 162 / 164 40% 6 29.11.2028 -
Souffian El Karouani Al-Qadisiyah Actif 140 / 147 40% 6 29.11.2028 -
Naves Internacional Actif 133 / 131 40% 3 28.11.2028 -
Sven Botman Newcastle United Actif 171 / 157 40% 2 28.11.2028 -
Juanlu Bournemouth Actif 157 / 166 40% 1 28.11.2028 -
Marcos Antonio Sport Recife Actif 142 / 138 40% 6 26.11.2028 -
Adrien Truffert Flamengo Actif 162 / 152 40% 9 25.11.2028 -
Robert Renan Zenit Actif 134 / 127 40% 5 25.11.2028 -
Jacob Greaves Ipswich Town Actif 146 / 155 40% 1 25.11.2028 -
Harry Clarke Preston Actif 138 / 144 40% 2 23.11.2028 -
Damián Bobadilla Sport Recife Actif 136 / 133 40% 7 23.11.2028 -
Alexandro Bernabei Internacional Actif 141 / 132 40% 3 23.11.2028 -
Manu Koné AS Roma Actif 176 / 177 40% 4 22.11.2028 -
Maximiliano Araújo West Ham United Actif 158 / 162 40% 10 18.11.2028 -
Santiago Ramos Mingo Bahia Actif 138 / 131 40% 5 18.11.2028 -
Tino Livramento Newcastle United Actif 163 / 163 40% 6 16.11.2028 -
Daniel Banjaqui Benfica Actif 127 / 127 40% 5 16.11.2028 -
Juan Pablo Freytes Fluminense Actif 133 / 124 40% 5 14.11.2028 -
Álex Valle Boca Juniors Actif 147 / 142 40% 3 14.11.2028 -
Amadou Onana Aston Villa Actif 160 / 151 40% 2 14.11.2028 -
Lucas Piton Vasco da Gama Actif 134 / 142 40% 10 13.11.2028 -
Cuiabano Nottingham Forest Actif 137 / 142 40% 8 12.11.2028 -
Riku Yamane Yokohama F. Marinos Actif 141 / 138 40% 6 12.11.2028 -
Danilo Botafogo Actif 144 / 146 40% 5 12.11.2028 -
Martinelli Fluminense Actif 146 / 146 40% 9 11.11.2028 -
Wesley Fofana Chelsea Actif 177 / 177 40% 1 11.11.2028 -
Cauan Barros Flamengo Actif 135 / 134 40% 4 10.11.2028 -
Reece James Chelsea Actif 177 / 183 40% 2 08.11.2028 -
Matteo Ruggeri Middlesbrough Actif 162 / 161 40% 1 08.11.2028 -
Felipe Loyola Bahia Actif 145 / 147 40% 5 06.11.2028 -
Levi Colwill Chelsea Actif 171 / 170 40% 2 06.11.2028 -
Tobías Ramírez River Plate Actif 131 / 138 40% 3 02.11.2028 -
Boubacar Kamara Aston Villa Actif 166 / 167 40% 4 27.10.2028 -
Ryan Sessegnon Fulham Actif 154 / 153 40% 3 23.10.2028 -
Miguel Figueiredo Benfica Actif 130 / 135 40% 1 23.10.2028 -
Salvador Blopá Wolverhampton Actif 127 / 127 40% 1 22.10.2028 -
Bruno Gomes Internacional Actif 136 / 132 40% 1 18.10.2028 -
Alex Scott Bournemouth Actif 159 / 164 40% 3 15.10.2028 -
Ousmane Diomande Nottingham Forest Actif 164 / 170 40% 3 12.10.2028 -
Mats Wieffer Brighton Actif 155 / 155 40% 1 11.10.2028 -
Fredrik Sjøvold Bodo/Glimt Actif 144 / 129 40% 3 09.10.2028 -
Malick Thiaw Ipswich Town Actif 160 / 152 40% 1 08.10.2028 -
Vitão Flamengo Actif 141 / 145 40% 3 01.10.2028 -
Kauã Moraes Flamengo Actif 136 / 130 40% 2 22.09.2028 -
Celías Ingenthron Platense Actif 118 / 126 40% 1 12.09.2028 -
Sandro Tonali Tottenham Actif 180 / 171 40% 2 09.09.2028 -
Riccardo Calafiori Burnley Actif 166 / 168 40% 1 06.09.2028 -
Alessandro Circati Benfica Actif 146 / 139 40% 1 03.09.2028 -
Thijs Kraaijeveld USM Alger Actif 125 / 119 40% 1 25.08.2028 -
Luiz Fernando Fortaleza Actif 128 / 128 30% 1 / 1m 23.08.2028 -
Sondre Auklend Bodo/Glimt Actif 131 / 145 40% 1 21.08.2028 -
Khéphren Thuram Juventus Actif 166 / 163 40% 1 20.08.2028 -
Nathan Patterson Torino Actif 143 / 134 40% 1 20.08.2028 -
Oumar Solet Udinese Actif 160 / 148 40% 1 20.08.2028 -
Odilon Kossounou Atalanta Actif 152 / 151 40% 2 17.08.2028 -
Ignace Van Der Brempt Como Actif 149 / 135 40% 1 17.08.2028 -
Eivind Helland AC Milan Actif 139 / 136 40% 3 16.08.2028 -
Matteo Prati Cagliari Actif 146 / 145 40% 1 16.08.2028 -
Antonio Candela Spezia Actif 138 / 143 40% 1 16.08.2028 -
Curtis Jones Inter Actif 158 / 165 40% 1 13.08.2028 -
Andrea Cambiaso Juventus Actif 155 / 156 40% 1 13.08.2028 -
Gabriele Zappa Cagliari Actif 141 / 144 40% 1 12.08.2028 -
Morten Frendrup Palermo Actif 151 / 154 40% 1 12.08.2028 -
Enrico Delprato Parma Actif 154 / 159 40% 1 11.08.2028 -
Rafa Marín Pisa Actif 159 / 153 40% 1 11.08.2028 -
Josh Doig Avellino Actif 147 / 140 40% 1 10.08.2028 -
Michele Collocolo Cremonese Actif 137 / 144 40% 1 10.08.2028 -
Honest Ahanor Atalanta Actif 144 / 137 40% 1 10.08.2028 -
Adam Wharton Crystal Palace Actif 160 / 170 40% 6 09.08.2028 -
Bafodé Diakité Plymouth Argyle Actif 148 / 144 40% 1 09.08.2028 -
Max Johnston Derby County Actif 138 / 138 40% 1 09.08.2028 -
Archie Gray Southampton Actif 160 / 163 40% 2 08.08.2028 -
Neco Williams Wrexham Actif 157 / 152 40% 1 08.08.2028 -
Lamare Bogarde Reading Actif 144 / 135 40% 1 07.08.2028 -
Patrick Dorgu Bristol City Actif 150 / 157 40% 1 07.08.2028 -
Marco Moreno Bahia Actif 127 / 120 86% 1 10.07.2028 Approuver
Yerson Mosquera Wolverhampton Actif 143 / 136 40% 1 04.07.2028 -
Xavi Simons Tottenham Actif 164 / 152 40% 2 19.06.2028 -
Jayden Danns Bradford City Actif 141 / 145 40% 1 19.06.2028 -
Giacomo Raspadori Atalanta Actif 151 / 161 40% 2 31.05.2028 -
Andrey Santos Bolton Wanderers Actif 145 / 140 40% 1 31.05.2028 -
Jacques Ekomié Wrexham Actif 139 / 128 40% 1 31.05.2028 -
Lucca Ceará Actif 121 / 124 42% 1 / 1m 07.07.2027 -
Noussair Mazraoui Manchester United Actif 162 / 158 40% 2 31.05.2027 -
James Garner Everton Actif 150 / 154 40% 1 31.05.2027 -
Nicolas Jackson Aston Villa Actif 150 / 149 40% 1 30.05.2027 -
Chemsdine Talbi Sunderland Actif 147 / 155 40% 2 19.05.2027 -
Matheus Araújo Oeste Actif 93 / 93 52% 1 / 1m 19.05.2027 -
Jonas Oeste Actif 77 / 82 30% 1 / 1m 19.05.2027 -
Gustavo America Mineiro Actif 128 / 128 42% 1 / 1m 19.05.2027 -
Kevin Fulham Actif 147 / 136 40% 1 17.05.2027 -
Ismaïla Sarr Crystal Palace Actif 145 / 134 40% 2 15.05.2027 -
Gabriel Martinelli Arsenal Actif 158 / 169 40% 3 15.05.2027 -
Yeremy Pino Crystal Palace Actif 148 / 150 40% 1 08.05.2027 -
Iliman N'Diaye Everton Actif 164 / 157 40% 1 30.04.2027 -
James Maddison Tottenham Actif 157 / 153 40% 1 29.04.2027 -
Hugo Ekitiké Liverpool Actif 165 / 153 40% 1 17.04.2027 -
David Brooks Bournemouth Actif 148 / 128 40% 2 13.04.2027 -
Igor Burnley Actif 140 / 156 40% 1 13.04.2027 -
Martin Baturina Como Actif 145 / 136 40% 1 13.04.2027 -
Othmane Maamma Watford Actif 118 / 123 40% 1 12.04.2027 -
Emiliano Buendía Aston Villa Actif 149 / 155 40% 1 12.04.2027 -
Kyle Walker-Peters West Ham United Actif 131 / 129 40% 1 11.04.2027 -
Antoni Milambo Brentford Actif 139 / 142 40% 1 11.04.2027 -
Harry Wilson Leeds United Actif 142 / 139 40% 5 08.04.2027 -
Malcom Al Jazira Actif 155 / 141 40% 4 31.03.2027 -
Eddie Nketiah Crystal Palace Actif 139 / 134 40% 1 31.03.2027 -
Azor Matusiwa Ipswich Town Actif 144 / 135 40% 1 30.03.2027 -
Andreas Schjelderup Benfica Actif 146 / 142 40% 2 21.03.2027 -
Yoane Wissa Newcastle United Actif 141 / 148 40% 2 21.03.2027 -
Pepê Porto Actif 141 / 137 40% 1 21.03.2027 -
Pau Víctor Braga Actif 135 / 131 40% 4 19.03.2027 -
Lovro Zvonarek Estrela da Amadora Actif 130 / 129 40% 2 14.03.2027 -
Iván Fresneda Sporting CP Actif 137 / 150 40% 1 14.03.2027 -
Hwang In-Beom Porto Actif 141 / 141 40% 3 12.03.2027 -
Václav Černý Besiktas Actif 141 / 122 40% 1 12.03.2027 -
Alberto Costa Porto Actif 146 / 151 40% 7 07.03.2027 -
Gianluca Prestianni Benfica Actif 130 / 132 40% 2 27.02.2027 -
Samuel Dahl Benfica Actif 133 / 130 40% 1 27.02.2027 -
Luís Guilherme Sporting CP Actif 129 / 125 40% 2 26.02.2027 -
Florentino Luís Ipswich Town Actif 136 / 139 40% 2 26.02.2027 -
Agustín Palavecino Cruz Azul Actif 131 / 144 40% 2 16.02.2027 -
Pablo Rosario Porto Actif 139 / 128 40% 1 13.02.2027 -
Enzo Barrenechea Benfica Actif 154 / 159 40% 11 30.11.2026 -
Geny Sporting CP Actif 138 / 158 40% 2 30.11.2026 -
Eduardo Quaresma AEL Larisa Actif 135 / 130 40% 4 29.11.2026 -
Leandro Barreiro Benfica Actif 141 / 135 40% 1 29.11.2026 -
Victor Froholdt Porto Actif 155 / 171 40% 5 28.11.2026 -
Hákon Arnar Haraldsson LOSC Lille Actif 153 / 151 40% 1 28.11.2026 -
Nordi Mukiele Sunderland Actif 139 / 138 40% 2 27.11.2026 -
Brais Méndez RC Lens Actif 148 / 146 40% 5 23.11.2026 -
Oscar Al-Taawoun Actif 144 / 151 40% 2 23.11.2026 -
Keane Lewis-Potter Brentford Actif 142 / 153 40% 1 22.11.2026 -
Rico Henry River Plate Actif 137 / 147 40% 6 21.11.2026 -
Sofiane Diop OGC Nice Actif 137 / 155 40% 2 18.11.2026 -
Roméo Lavia Chelsea Actif 150 / 165 40% 1 18.11.2026 -
Jake O'Brien Everton Actif 143 / 143 40% 1 15.11.2026 -
Ritsu Doan Gamba Osaka Actif 154 / 130 40% 2 13.11.2026 -
Tristan Degreef Anderlecht Actif 123 / 134 40% 1 13.11.2026 -
Roberto Fernández Braga Actif 140 / 154 40% 2 10.11.2026 -
Víctor Gómez Braga Actif 133 / 134 40% 2 09.11.2026 -
Yunus Akgün Galatasaray Actif 138 / 156 40% 1 05.11.2026 -
Joe Gomez Liverpool Actif 155 / 143 40% 2 04.11.2026 -
Zeno Debast Sporting CP Actif 145 / 153 40% 2 04.11.2026 -
Gabriel Gudmundsson Leeds United Actif 140 / 150 40% 1 30.10.2026 -
António Silva Bournemouth Actif 146 / 157 40% 2 27.10.2026 -
Ainsley Maitland-Niles Everton Actif 144 / 147 40% 1 27.10.2026 -
Ibrahim Sangaré Nottingham Forest Actif 148 / 162 40% 1 27.10.2026 -
Pau Torres Aston Villa Actif 155 / 135 40% 1 18.10.2026 -
Lucas Paquetá Flamengo Actif 137 / 129 40% 1 18.10.2026 -
Sepp van den Berg Brentford Actif 152 / 156 40% 1 18.10.2026 -
Nathan Collins Brentford Actif 140 / 151 40% 2 14.10.2026 -
Takehiro Tomiyasu Crystal Palace Actif 136 / 145 40% 1 14.10.2026 -
Nehuén Pérez Porto Actif 144 / 154 40% 1 12.10.2026 -
Amine Adli Bournemouth Actif 139 / 148 40% 1 12.10.2026 -
Sergi Altimira Sporting CP Actif 135 / 122 40% 1 10.10.2026 -
Lisandro Martínez Ajax Actif 153 / 161 40% 2 06.10.2026 -
Cristian Uribe Monaco Actif 157 / 134 40% 1 02.10.2026 -
Xaver Schlager Nottingham Forest Actif 157 / 160 40% 1 29.09.2026 -
Tomás Araújo Benfica Actif 147 / 132 40% 1 28.09.2026 -
Pedro Porro Tottenham Actif 142 / 135 40% 1 23.09.2026 -
Dodi Lukébakio Benfica Actif 139 / 156 40% 1 17.09.2026 -
Amin Boudri Los Angeles Football Club Actif 114 / 139 40% 1 20.08.2026 -
Malo Gusto Chelsea Actif 137 / 132 40% 1 17.08.2026 -
Jorge De Frutos Rayo Vallecano Actif 138 / 161 40% 1 07.08.2026 -
Fran García Betis Actif 141 / 127 40% 1 06.08.2026 -
Matty Cash Aston Villa Actif 148 / 142 40% 1 04.08.2026 -
Mikel Oyarzábal Real Sociedad Actif 158 / 151 40% 1 04.08.2026 -
Robin Roefs Sunderland Actif 146 / 124 40% 1 02.08.2026 -